地図

経路データ

SID SEASON NUMBER BASIN SUBBASIN NAME ISO_TIME NATURE LAT LON WMO_WIND WMO_PRES WMO_AGENCY TRACK_TYPE DIST2LAND LANDFALL IFLAG USA_AGENCY USA_ATCF_ID USA_LAT USA_LON USA_RECORD USA_STATUS USA_WIND USA_PRES USA_SSHS USA_R34_NE USA_R34_SE USA_R34_SW USA_R34_NW USA_R50_NE USA_R50_SE USA_R50_SW USA_R50_NW USA_R64_NE USA_R64_SE USA_R64_SW USA_R64_NW USA_POCI USA_ROCI USA_RMW USA_EYE TOKYO_LAT TOKYO_LON TOKYO_GRADE TOKYO_WIND TOKYO_PRES TOKYO_R50_DIR TOKYO_R50_LONG TOKYO_R50_SHORT TOKYO_R30_DIR TOKYO_R30_LONG TOKYO_R30_SHORT TOKYO_LAND CMA_LAT CMA_LON CMA_CAT CMA_WIND CMA_PRES HKO_LAT HKO_LON HKO_CAT HKO_WIND HKO_PRES NEWDELHI_LAT NEWDELHI_LON NEWDELHI_GRADE NEWDELHI_WIND NEWDELHI_PRES NEWDELHI_CI NEWDELHI_DP NEWDELHI_POCI REUNION_LAT REUNION_LON REUNION_TYPE REUNION_WIND REUNION_PRES REUNION_TNUM REUNION_CI REUNION_RMW REUNION_R34_NE REUNION_R34_SE REUNION_R34_SW REUNION_R34_NW REUNION_R50_NE REUNION_R50_SE REUNION_R50_SW REUNION_R50_NW REUNION_R64_NE REUNION_R64_SE REUNION_R64_SW REUNION_R64_NW BOM_LAT BOM_LON BOM_TYPE BOM_WIND BOM_PRES BOM_TNUM BOM_CI BOM_RMW BOM_R34_NE BOM_R34_SE BOM_R34_SW BOM_R34_NW BOM_R50_NE BOM_R50_SE BOM_R50_SW BOM_R50_NW BOM_R64_NE BOM_R64_SE BOM_R64_SW BOM_R64_NW BOM_ROCI BOM_POCI BOM_EYE BOM_POS_METHOD BOM_PRES_METHOD NADI_LAT NADI_LON NADI_CAT NADI_WIND NADI_PRES WELLINGTON_LAT WELLINGTON_LON WELLINGTON_WIND WELLINGTON_PRES DS824_LAT DS824_LON DS824_STAGE DS824_WIND DS824_PRES TD9636_LAT TD9636_LON TD9636_STAGE TD9636_WIND TD9636_PRES TD9635_LAT TD9635_LON TD9635_WIND TD9635_PRES TD9635_ROCI NEUMANN_LAT NEUMANN_LON NEUMANN_CLASS NEUMANN_WIND NEUMANN_PRES MLC_LAT MLC_LON MLC_CLASS MLC_WIND MLC_PRES USA_GUST BOM_GUST BOM_GUST_PER REUNION_GUST REUNION_GUST_PER USA_SEAHGT USA_SEARAD_NE USA_SEARAD_SE USA_SEARAD_SW USA_SEARAD_NW STORM_SPEED STORM_DIR
1943315S11101 1944 82 SI WA NOT_NAMED 1943-11-11 06:00:00 NR -11.3000 101.200 main 668 668 _____O________ -1 -11.3000 101.200 99 9.90000 0 0
1943315S11101 1944 82 SI WA NOT_NAMED 1943-11-11 09:00:00 NR -11.2761 101.197 main 668 660 _____P________ -1 -11.2761 101.197 99 1 349
1943315S11101 1944 82 SI WA NOT_NAMED 1943-11-11 12:00:00 NR -11.2450 101.181 main 660 660 _____P________ -1 -11.2450 101.181 99 1 322
1943315S11101 1944 82 SI WA NOT_NAMED 1943-11-11 15:00:00 NR -11.1995 101.136 main 667 659 _____P________ -1 -11.1995 101.136 99 2 311
1943315S11101 1944 82 SI WA NOT_NAMED 1943-11-11 18:00:00 NR -11.1323 101.049 main 667 666 _____P________ -1 -11.1323 101.049 99 3 306
1943315S11101 1944 82 SI WA NOT_NAMED 1943-11-11 21:00:00 NR -11.0361 100.906 main 666 666 _____P________ -1 -11.0361 100.906 99 4 303
1943315S11101 1944 82 SI WA NOT_NAMED 1943-11-12 00:00:00 NR -10.9037 100.692 main 675 675 _____P________ -1 -10.9037 100.692 99 6 302
1943315S11101 1944 82 SI WA NOT_NAMED 1943-11-12 03:00:00 NR -10.7275 100.395 main 685 685 _____P________ -1 -10.7275 100.395 99 8 301
1943315S11101 1944 82 SI WA NOT_NAMED 1943-11-12 06:00:00 NR -10.5000 100.000 main 706 706 _____O________ -1 -10.5000 100.000 99 9.90000 10 300
1943315S11101 1944 82 SI WA NOT_NAMED 1943-11-12 09:00:00 NR -10.2170 99.5000 main 733 733 _____P________ -1 -10.2170 99.5000 99 12 300
1943315S11101 1944 82 SI WA NOT_NAMED 1943-11-12 12:00:00 NR -9.88913 98.9161 main 748 746 _____P________ -1 -9.88913 98.9161 99 14 300
1943315S11101 1944 82 SI WA NOT_NAMED 1943-11-12 15:00:00 NR -9.53067 98.2762 main 756 756 _____P________ -1 -9.53067 98.2762 99 15 300
1943315S11101 1944 82 SI WA NOT_NAMED 1943-11-12 18:00:00 NR -9.15629 97.6079 main 780 772 _____P________ -1 -9.15629 97.6079 99 15 300
1943315S11101 1944 82 SI WA NOT_NAMED 1943-11-12 21:00:00 NR -8.78089 96.9389 main 803 796 _____P________ -1 -8.78089 96.9389 99 15 300
1943315S11101 1944 82 SI WA NOT_NAMED 1943-11-13 00:00:00 NR -8.41955 96.2966 main 801 795 _____P________ -1 -8.41955 96.2966 99 14 300
1943315S11101 1944 82 SI WA NOT_NAMED 1943-11-13 03:00:00 NR -8.08750 95.7080 main 800 791 _____P________ -1 -8.08750 95.7080 99 13 300
1943315S11101 1944 82 SI WA NOT_NAMED 1943-11-13 06:00:00 NR -7.80000 95.2000 main 797 793 _____O________ -1 -7.80000 95.2000 99 9.90000 10 300
1943315S11101 1944 82 SI WA NOT_NAMED 1943-11-13 09:00:00 NR -7.56856 94.7924 main 802 793 _____P________ -1 -7.56856 94.7924 99 8 300
1943315S11101 1944 82 SI WA NOT_NAMED 1943-11-13 12:00:00 NR -7.38961 94.4783 main 803 801 _____P________ -1 -7.38961 94.4783 99 6 300
1943315S11101 1944 82 SI WA NOT_NAMED 1943-11-13 15:00:00 NR -7.25572 94.2439 main 815 807 _____P________ -1 -7.25572 94.2439 99 5 300
1943315S11101 1944 82 SI WA NOT_NAMED 1943-11-13 18:00:00 NR -7.15941 94.0757 main 814 806 _____P________ -1 -7.15941 94.0757 99 3 300
1943315S11101 1944 82 SI WA NOT_NAMED 1943-11-13 21:00:00 NR -7.09321 93.9606 main 813 813 _____P________ -1 -7.09321 93.9606 99 2 300
1943315S11101 1944 82 SI WA NOT_NAMED 1943-11-14 00:00:00 NR -7.04959 93.8850 main 812 812 _____P________ -1 -7.04959 93.8850 99 1 300
1943315S11101 1944 82 SI WA NOT_NAMED 1943-11-14 03:00:00 NR -7.02103 93.8359 main 820 820 _____P________ -1 -7.02103 93.8359 99 1 298
1943315S11101 1944 82 SI WA NOT_NAMED 1943-11-14 06:00:00 NR -7.00000 93.8000 main 820 _____O________ -1 -7.00000 93.8000 99 9.90000 1 302

IBTrACS Databaseについて

本データベースは、米国NOAAが公開する1842年以降の世界の熱帯低気圧のベストトラックデータアーカイブInternational Best Track Archive for Climate Stewardship (IBTrACS)を、ウェブで閲覧しやすい形式に変換したものです。

最終更新日:2021-12-01